createdAt,value
2019-02-22T00:00:39.367Z,53.70
2019-02-22T00:03:07.276Z,57.17
2019-02-22T00:05:35.141Z,52.53
2019-02-22T00:08:03.176Z,54.67
2019-02-22T00:10:30.968Z,50.80
2019-02-22T00:12:58.846Z,50.07
2019-02-22T00:15:26.875Z,51.80
2019-02-22T00:17:54.580Z,52.87
2019-02-22T00:20:22.440Z,55.53
2019-02-22T00:22:50.444Z,52.20
2019-02-22T00:25:18.367Z,54.63
2019-02-22T00:27:46.068Z,51.20
2019-02-22T00:30:13.898Z,54.33
2019-02-22T00:32:42.550Z,48.60
2019-02-22T00:35:10.759Z,48.70
2019-02-22T00:37:38.686Z,50.33
2019-02-22T00:40:06.610Z,50.87
2019-02-22T00:42:34.469Z,50.83
2019-02-22T00:45:03.418Z,48.20
2019-02-22T00:47:31.312Z,48.53
2019-02-22T00:49:59.188Z,47.70
2019-02-22T00:52:27.427Z,49.30
2019-02-22T00:54:55.332Z,50.43
2019-02-22T00:57:23.197Z,47.63
2019-02-22T00:59:51.140Z,48.63
2019-02-22T01:02:19.134Z,49.77
2019-02-22T01:04:47.024Z,46.73
2019-02-22T01:07:14.925Z,53.33
2019-02-22T01:09:42.728Z,50.70
2019-02-22T01:12:10.596Z,45.97
2019-02-22T01:14:39.523Z,49.60
2019-02-22T01:17:07.367Z,48.47
2019-02-22T01:19:35.220Z,49.37
2019-02-22T01:22:03.223Z,46.33
2019-02-22T01:24:31.039Z,48.70
2019-02-22T01:26:59.007Z,47.23
2019-02-22T01:29:26.943Z,51.97
2019-02-22T01:31:54.857Z,51.00
2019-02-22T01:34:30.338Z,49.33
2019-02-22T01:36:58.152Z,47.57
2019-02-22T01:39:26.033Z,49.50
2019-02-22T01:41:53.926Z,52.70
2019-02-22T01:44:21.858Z,50.97
2019-02-22T01:46:50.765Z,49.77
2019-02-22T01:49:18.711Z,50.13
2019-02-22T01:51:46.599Z,49.77
2019-02-22T01:54:14.488Z,46.93
2019-02-22T01:56:42.294Z,45.50
2019-02-22T01:59:10.192Z,48.13
2019-02-22T02:01:38.040Z,47.13
2019-02-22T02:04:06.104Z,45.87
2019-02-22T02:06:34.096Z,51.40
2019-02-22T02:09:01.959Z,49.00
2019-02-22T02:11:29.884Z,46.13
2019-02-22T02:13:57.783Z,52.07
2019-02-22T02:16:25.547Z,48.73
2019-02-22T02:18:53.484Z,49.23
2019-02-22T02:21:21.396Z,50.73
2019-02-22T02:23:49.260Z,47.77
2019-02-22T02:26:18.327Z,47.60
2019-02-22T02:28:46.129Z,45.77
2019-02-22T02:31:13.996Z,50.33
2019-02-22T02:33:41.983Z,49.40
2019-02-22T02:36:09.827Z,50.17
2019-02-22T02:38:37.713Z,47.90
2019-02-22T02:41:10.848Z,46.63
2019-02-22T02:43:35.260Z,52.13
2019-02-22T02:46:03.138Z,46.70
2019-02-22T02:48:31.047Z,46.70
2019-02-22T02:50:59.068Z,46.47
2019-02-22T02:53:26.926Z,45.23
2019-02-22T02:55:54.840Z,43.87
2019-02-22T02:58:22.582Z,40.30
2019-02-22T03:00:50.407Z,44.93
2019-02-22T03:03:18.338Z,43.67
2019-02-22T03:06:11.752Z,45.73
2019-02-22T03:08:39.861Z,44.20
2019-02-22T03:11:19.615Z,39.53
2019-02-22T03:13:37.505Z,41.47
2019-02-22T03:16:05.503Z,43.43
2019-02-22T03:18:33.439Z,43.07
2019-02-22T03:21:01.306Z,40.20
2019-02-22T03:23:29.228Z,43.07
2019-02-22T03:25:57.186Z,40.33
2019-02-22T03:28:25.004Z,44.30
2019-02-22T03:30:52.942Z,41.77
2019-02-22T03:33:20.851Z,39.77
2019-02-22T03:35:48.718Z,41.87
2019-02-22T03:38:16.746Z,39.90
2019-02-22T03:40:44.452Z,40.90
2019-02-22T03:43:12.309Z,42.87
2019-02-22T03:45:40.326Z,40.03
2019-02-22T03:48:08.247Z,41.47
2019-02-22T03:50:36.219Z,42.93
2019-02-22T03:53:12.442Z,43.43
2019-02-22T03:55:40.340Z,43.07
2019-02-22T03:58:08.214Z,39.70
2019-02-22T04:00:36.303Z,40.30
2019-02-22T04:03:04.245Z,38.63
2019-02-22T04:05:32.212Z,41.57
2019-02-22T04:08:00.137Z,39.13
2019-02-22T04:10:28.178Z,40.40
2019-02-22T04:12:56.143Z,38.83
2019-02-22T04:15:24.046Z,42.37
2019-02-22T04:17:51.952Z,43.77
2019-02-22T04:20:19.826Z,42.53
2019-02-22T04:22:47.748Z,44.33
2019-02-22T04:25:15.815Z,37.63
2019-02-22T04:27:43.740Z,42.37
2019-02-22T04:30:11.850Z,39.07
2019-02-22T04:32:39.763Z,39.43
2019-02-22T04:35:07.629Z,39.03
2019-02-22T04:37:35.559Z,40.70
2019-02-22T04:40:03.466Z,41.93
2019-02-22T04:42:31.435Z,36.93
2019-02-22T04:44:59.381Z,38.10
2019-02-22T04:47:27.276Z,39.07
2019-02-22T04:49:55.288Z,40.83
2019-02-22T04:52:23.899Z,37.63
2019-02-22T04:54:51.771Z,39.63
2019-02-22T04:57:19.793Z,35.00
2019-02-22T04:59:47.680Z,37.03
2019-02-22T05:02:15.701Z,36.63
2019-02-22T05:04:43.694Z,40.33
2019-02-22T05:07:11.585Z,34.47
2019-02-22T05:09:39.599Z,38.23
2019-02-22T05:12:10.775Z,39.27
2019-02-22T05:14:37.233Z,39.27
2019-02-22T05:17:05.047Z,37.57
2019-02-22T05:19:32.910Z,41.33
2019-02-22T05:22:00.834Z,41.00
2019-02-22T05:24:28.743Z,37.90
2019-02-22T05:26:56.591Z,37.43
2019-02-22T05:29:24.529Z,36.83
2019-02-22T05:31:52.638Z,37.40
2019-02-22T05:34:20.522Z,37.67
2019-02-22T05:36:48.446Z,37.07
2019-02-22T05:39:19.471Z,35.63
2019-02-22T05:41:46.158Z,43.50
2019-02-22T05:44:17.005Z,38.97
2019-02-22T05:46:44.658Z,42.87
2019-02-22T05:49:12.543Z,45.47
2019-02-22T05:51:40.552Z,48.93
2019-02-22T05:54:08.450Z,50.07
2019-02-22T05:56:36.478Z,46.18
2019-02-22T05:59:04.339Z,47.03
2019-02-22T06:01:32.359Z,47.27
2019-02-22T06:04:00.269Z,41.23
2019-02-22T06:06:28.340Z,42.33
2019-02-22T06:08:56.370Z,41.87
2019-02-22T06:11:24.126Z,43.07
2019-02-22T06:13:52.170Z,39.83
2019-02-22T06:16:20.104Z,46.63
2019-02-22T06:18:48.123Z,48.20
2019-02-22T06:21:16.075Z,39.53
2019-02-22T06:23:43.981Z,44.20
2019-02-22T06:26:11.952Z,43.47
2019-02-22T06:28:39.872Z,46.63
2019-02-22T06:31:07.709Z,43.77
2019-02-22T06:33:35.707Z,43.33
2019-02-22T06:36:04.110Z,49.27
2019-02-22T06:38:34.640Z,50.03
2019-02-22T06:41:02.705Z,51.53
2019-02-22T06:43:30.640Z,63.40
2019-02-22T06:45:58.634Z,57.97
2019-02-22T06:48:26.743Z,63.03
2019-02-22T06:50:54.758Z,71.97
2019-02-22T06:53:22.662Z,70.60
2019-02-22T06:55:50.515Z,73.77
2019-02-22T06:58:18.945Z,76.50
2019-02-22T07:00:46.902Z,79.07
2019-02-22T07:03:14.840Z,82.80
2019-02-22T07:05:42.738Z,77.97
2019-02-22T07:08:10.600Z,87.23
2019-02-22T07:10:56.275Z,82.20
2019-02-22T07:13:24.588Z,84.17
2019-02-22T07:15:52.590Z,73.30
2019-02-22T07:18:20.533Z,76.67
2019-02-22T07:20:48.416Z,81.00
2019-02-22T07:23:16.283Z,75.23
2019-02-22T07:25:44.261Z,69.77
2019-02-22T07:28:12.242Z,71.43
2019-02-22T07:30:40.211Z,75.03
2019-02-22T07:33:08.329Z,73.77
2019-02-22T07:35:36.454Z,73.60
2019-02-22T07:38:04.333Z,74.17
2019-02-22T07:40:32.468Z,75.73
2019-02-22T07:43:07.757Z,72.73
2019-02-22T07:45:30.210Z,76.43
2019-02-22T07:47:58.143Z,65.27
2019-02-22T07:50:26.186Z,62.50
2019-02-22T07:52:54.171Z,65.17
2019-02-22T07:55:22.029Z,66.63
2019-02-22T07:57:51.127Z,65.23
2019-02-22T08:00:19.314Z,69.87
2019-02-22T08:02:47.440Z,65.73
2019-02-22T08:05:15.324Z,71.27
2019-02-22T08:07:43.218Z,63.17
2019-02-22T08:10:11.144Z,64.10
2019-02-22T08:12:39.309Z,63.47
2019-02-22T08:15:07.931Z,63.30
2019-02-22T08:17:36.065Z,60.27
2019-02-22T08:20:04.190Z,57.47
2019-02-22T08:22:32.343Z,52.67
2019-02-22T08:25:00.294Z,50.50
2019-02-22T08:27:28.286Z,51.87
2019-02-22T08:29:56.475Z,51.90
2019-02-22T08:32:24.512Z,56.90
2019-02-22T08:34:52.395Z,56.87
2019-02-22T08:37:20.486Z,53.37
2019-02-22T08:39:58.285Z,54.37
2019-02-22T08:42:18.676Z,55.20
2019-02-22T08:44:46.827Z,52.27
2019-02-22T08:47:14.846Z,52.27
2019-02-22T08:49:42.663Z,59.67
2019-02-22T08:52:10.740Z,51.57
2019-02-22T08:54:46.540Z,50.70
2019-02-22T08:57:08.310Z,50.87
2019-02-22T08:59:37.195Z,52.63
2019-02-22T09:02:05.132Z,56.77
2019-02-22T09:04:33.230Z,55.23
2019-02-22T09:07:01.110Z,59.47
2019-02-22T09:09:29.129Z,53.53
2019-02-22T09:11:57.838Z,56.80
2019-02-22T09:14:25.836Z,55.47
2019-02-22T09:16:54.275Z,60.07
2019-02-22T09:19:22.275Z,56.30
2019-02-22T09:21:50.154Z,60.70
2019-02-22T09:24:18.079Z,62.30
2019-02-22T09:26:45.984Z,54.70
2019-02-22T09:29:13.982Z,50.40
2019-02-22T09:31:42.344Z,46.10
2019-02-22T09:34:10.813Z,49.87
2019-02-22T09:36:38.780Z,46.90
2019-02-22T09:39:07.734Z,43.67
2019-02-22T09:41:35.944Z,46.23
2019-02-22T09:44:04.016Z,44.37
2019-02-22T09:46:32.260Z,46.97
2019-02-22T09:49:02.515Z,45.73
2019-02-22T09:51:30.738Z,42.77
2019-02-22T09:53:58.720Z,43.20
2019-02-22T09:56:26.711Z,42.00
2019-02-22T09:58:54.595Z,39.60
2019-02-22T10:01:29.777Z,37.87
2019-02-22T10:03:57.811Z,41.47
2019-02-22T10:06:25.966Z,41.37
2019-02-22T10:08:54.455Z,38.50
2019-02-22T10:11:22.628Z,36.13
2019-02-22T10:13:50.504Z,39.30
2019-02-22T10:16:20.064Z,38.37
2019-02-22T10:18:48.232Z,39.60
2019-02-22T10:21:17.171Z,38.00
2019-02-22T10:23:45.567Z,37.17
2019-02-22T10:26:13.611Z,37.13
2019-02-22T10:28:41.680Z,41.50
2019-02-22T10:31:10.323Z,36.47
2019-02-22T10:33:39.114Z,38.80
2019-02-22T10:36:07.011Z,34.23
2019-02-22T10:38:36.093Z,37.83
2019-02-22T10:41:04.798Z,41.33
2019-02-22T10:43:32.976Z,42.90
2019-02-22T10:46:01.891Z,42.63
2019-02-22T10:48:30.869Z,40.00
2019-02-22T10:50:59.538Z,34.67
2019-02-22T10:53:27.790Z,36.17
2019-02-22T10:55:56.327Z,36.70
2019-02-22T10:58:26.151Z,34.57
2019-02-22T11:00:54.635Z,36.47
2019-02-22T11:03:26.055Z,37.43
2019-02-22T11:05:53.989Z,37.70
2019-02-22T11:08:39.661Z,35.50
2019-02-22T11:11:07.780Z,39.17
2019-02-22T11:13:35.616Z,36.17
2019-02-22T11:16:04.823Z,33.57
2019-02-22T11:18:32.689Z,36.87
2019-02-22T11:21:00.652Z,34.77
2019-02-22T11:23:28.601Z,33.33
2019-02-22T11:25:58.540Z,30.37
2019-02-22T11:28:26.420Z,32.93
2019-02-22T11:30:54.508Z,32.13
2019-02-22T11:33:22.680Z,33.67
2019-02-22T11:35:50.608Z,33.53
2019-02-22T11:38:18.964Z,30.90
2019-02-22T11:40:48.102Z,34.77
2019-02-22T11:43:16.882Z,35.73
2019-02-22T11:45:45.015Z,29.60
2019-02-22T11:48:13.124Z,29.70
2019-02-22T11:50:40.992Z,24.17
2019-02-22T11:53:13.103Z,26.63
2019-02-22T11:55:41.134Z,28.97
2019-02-22T11:58:11.144Z,29.37
2019-02-22T12:00:39.378Z,31.10
2019-02-22T12:11:15.608Z,28.97
2019-02-22T12:18:55.415Z,37.50
2019-02-22T12:21:23.209Z,33.77
2019-02-22T12:23:52.897Z,38.13
2019-02-22T12:31:59.313Z,34.47
2019-02-22T12:34:27.088Z,32.57
2019-02-22T12:36:55.014Z,36.17
2019-02-22T12:39:23.051Z,33.50
2019-02-22T12:41:53.538Z,31.00
2019-02-22T12:44:20.546Z,36.53
2019-02-22T12:46:48.473Z,35.60
2019-02-22T12:49:16.292Z,37.50
2019-02-22T12:51:44.267Z,35.83
2019-02-22T12:54:12.407Z,33.93
2019-02-22T12:56:57.900Z,38.27
2019-02-22T12:59:09.911Z,37.93
2019-02-22T13:01:38.049Z,34.37
2019-02-22T13:04:06.086Z,38.80
2019-02-22T13:06:34.928Z,40.10
2019-02-22T13:09:04.241Z,38.43
2019-02-22T13:11:32.087Z,42.50
2019-02-22T13:13:59.953Z,37.60
2019-02-22T13:16:27.890Z,38.83
2019-02-22T13:18:55.910Z,34.97
2019-02-22T13:21:23.776Z,32.67
2019-02-22T13:23:51.515Z,33.73
2019-02-22T13:26:19.408Z,36.93
2019-02-22T13:28:47.376Z,36.23
2019-02-22T13:31:15.377Z,30.33
2019-02-22T13:33:43.279Z,35.47
2019-02-22T13:36:11.182Z,29.20
2019-02-22T13:38:39.253Z,32.90
2019-02-22T13:41:07.103Z,35.60
2019-02-22T13:43:34.951Z,37.97
2019-02-22T13:46:03.122Z,30.27
2019-02-22T13:48:31.082Z,31.60
2019-02-22T13:50:59.097Z,30.67
2019-02-22T13:53:27.007Z,41.47
2019-02-22T13:55:55.113Z,44.13
2019-02-22T13:58:23.181Z,37.03
2019-02-22T14:00:51.117Z,38.20
2019-02-22T14:03:18.951Z,36.20
2019-02-22T14:05:46.783Z,48.37
2019-02-22T14:08:15.749Z,41.43
2019-02-22T14:10:43.560Z,41.83
2019-02-22T14:13:11.507Z,45.97
2019-02-22T14:15:39.440Z,46.13
2019-02-22T14:18:07.447Z,49.77
2019-02-22T14:20:35.333Z,51.30
2019-02-22T14:23:03.829Z,58.33
2019-02-22T14:25:31.791Z,59.43
2019-02-22T14:27:59.614Z,57.90
2019-02-22T14:30:27.771Z,55.57
2019-02-22T14:32:55.568Z,55.33
2019-02-22T14:35:23.333Z,53.90
2019-02-22T14:37:51.242Z,61.80
2019-02-22T14:40:19.166Z,67.37
2019-02-22T14:42:47.072Z,58.17
2019-02-22T14:45:15.062Z,63.90
2019-02-22T14:47:42.908Z,59.43
2019-02-22T14:50:11.857Z,59.70
2019-02-22T14:52:39.853Z,58.23
2019-02-22T14:55:07.794Z,56.00
2019-02-22T14:57:35.652Z,61.13
2019-02-22T15:00:03.788Z,56.53
2019-02-22T15:02:31.788Z,50.83
2019-02-22T15:04:59.660Z,56.10
2019-02-22T15:07:27.625Z,56.80
2019-02-22T15:09:58.980Z,54.73
2019-02-22T15:12:26.961Z,50.93
2019-02-22T15:14:54.891Z,53.80
2019-02-22T15:17:28.307Z,53.00
2019-02-22T15:19:56.311Z,54.80
2019-02-22T15:22:24.138Z,49.10
2019-02-22T15:24:53.675Z,49.70
2019-02-22T15:27:22.005Z,49.63
2019-02-22T15:29:49.932Z,51.37
2019-02-22T15:32:17.860Z,51.63
2019-02-22T15:34:45.816Z,55.20
2019-02-22T15:37:13.701Z,49.77
2019-02-22T15:39:41.569Z,49.90
2019-02-22T15:42:09.487Z,49.57
2019-02-22T15:44:37.428Z,48.90
2019-02-22T15:47:11.685Z,54.60
2019-02-22T15:49:35.100Z,57.30
2019-02-22T15:52:03.011Z,57.30
2019-02-22T15:54:30.904Z,53.47
2019-02-22T15:56:58.831Z,63.30
2019-02-22T15:59:26.877Z,58.60
2019-02-22T16:01:56.092Z,52.67
2019-02-22T16:04:38.842Z,51.77
2019-02-22T16:07:06.748Z,56.27
2019-02-22T16:09:35.222Z,60.33
2019-02-22T16:12:03.215Z,51.30
2019-02-22T16:14:31.161Z,51.07
2019-02-22T16:16:59.002Z,48.60
2019-02-22T16:19:27.012Z,45.60
2019-02-22T16:21:54.940Z,48.20
2019-02-22T16:24:22.844Z,44.40
2019-02-22T16:27:01.575Z,47.37
2019-02-22T16:29:29.931Z,48.13
2019-02-22T16:31:57.762Z,49.03
2019-02-22T16:34:25.775Z,49.40
2019-02-22T16:36:53.600Z,50.10
2019-02-22T16:39:21.479Z,53.83
2019-02-22T16:41:49.594Z,59.10
2019-02-22T16:44:17.517Z,64.37
2019-02-22T16:46:45.514Z,67.20
2019-02-22T16:49:13.707Z,70.53
2019-02-22T16:51:41.744Z,69.47
2019-02-22T16:54:09.688Z,76.10
2019-02-22T16:56:37.634Z,72.70
2019-02-22T16:59:05.618Z,70.73
2019-02-22T17:01:33.503Z,85.47
2019-02-22T17:04:01.599Z,80.23
2019-02-22T17:06:29.429Z,78.60
2019-02-22T17:08:57.387Z,78.23
2019-02-22T17:11:26.419Z,79.57
2019-02-22T17:13:54.356Z,79.93
2019-02-22T17:16:22.148Z,83.90
2019-02-22T17:18:50.069Z,87.03
2019-02-22T17:21:17.979Z,82.53
2019-02-22T17:23:45.883Z,80.47
2019-02-22T17:26:14.769Z,85.77
2019-02-22T17:28:42.676Z,86.83
2019-02-22T17:31:10.562Z,87.40
2019-02-22T17:33:38.572Z,83.07
2019-02-22T17:36:06.471Z,84.00
2019-02-22T17:38:34.343Z,79.57
2019-02-22T17:41:02.283Z,77.37
2019-02-22T17:43:30.197Z,83.83
2019-02-22T17:45:58.132Z,91.03
2019-02-22T17:48:26.157Z,77.00
2019-02-22T17:50:54.006Z,86.20
2019-02-22T17:53:21.853Z,85.23
2019-02-22T17:55:49.764Z,104.43
2019-02-22T17:58:24.511Z,86.37
2019-02-22T18:00:47.280Z,92.10
2019-02-22T18:03:15.275Z,86.13
2019-02-22T18:05:43.041Z,90.80
2019-02-22T18:08:10.895Z,88.13
2019-02-22T18:10:38.896Z,94.43
2019-02-22T18:13:07.748Z,87.33
2019-02-22T18:15:35.616Z,92.17
2019-02-22T18:18:03.627Z,84.27
2019-02-22T18:20:31.443Z,85.03
2019-02-22T18:22:59.313Z,84.07
2019-02-22T18:25:27.261Z,91.17
2019-02-22T18:27:55.138Z,86.17
2019-02-22T18:30:23.117Z,88.67
2019-02-22T18:32:50.938Z,89.77
2019-02-22T18:35:18.754Z,89.53
2019-02-22T18:37:46.607Z,85.90
2019-02-22T18:40:14.415Z,93.47
2019-02-22T18:42:42.277Z,95.27
2019-02-22T18:45:10.181Z,97.53
2019-02-22T18:47:38.338Z,98.27
2019-02-22T18:50:06.678Z,96.30
2019-02-22T18:52:35.576Z,103.57
2019-02-22T18:55:03.688Z,103.83
2019-02-22T18:57:31.507Z,111.23
2019-02-22T18:59:59.342Z,107.77
2019-02-22T19:02:27.366Z,104.83
2019-02-22T19:04:55.195Z,120.70
2019-02-22T19:07:23.278Z,103.90
2019-02-22T19:09:51.169Z,99.93
2019-02-22T19:12:19.042Z,106.80
2019-02-22T19:14:46.666Z,102.93
2019-02-22T19:17:14.657Z,105.43
2019-02-22T19:19:42.492Z,95.20
2019-02-22T19:22:10.463Z,94.67
2019-02-22T19:24:38.460Z,90.50
2019-02-22T19:27:06.186Z,82.30
2019-02-22T19:29:34.050Z,88.63
2019-02-22T19:32:02.092Z,80.20
2019-02-22T19:34:29.998Z,78.73
2019-02-22T19:36:57.864Z,76.53
2019-02-22T19:39:25.982Z,85.03
2019-02-22T19:41:53.793Z,77.27
2019-02-22T19:44:21.755Z,67.30
2019-02-22T19:46:49.695Z,69.33
2019-02-22T19:49:17.595Z,65.63
2019-02-22T19:51:45.460Z,68.40
2019-02-22T19:54:13.474Z,60.23
2019-02-22T19:56:41.334Z,60.33
2019-02-22T19:59:09.168Z,59.67
2019-02-22T20:01:37.195Z,59.10
2019-02-22T20:04:04.800Z,54.43
2019-02-22T20:06:32.759Z,57.80
2019-02-22T20:09:00.764Z,49.13
2019-02-22T20:11:28.582Z,55.27
2019-02-22T20:13:56.516Z,56.83
2019-02-22T20:16:49.895Z,56.60
2019-02-22T20:19:17.796Z,56.00
2019-02-22T20:21:45.675Z,60.33
2019-02-22T20:24:13.567Z,54.43
2019-02-22T20:26:41.379Z,50.70
2019-02-22T20:29:09.355Z,52.00
2019-02-22T20:31:37.492Z,57.07
2019-02-22T20:34:05.404Z,49.80
2019-02-22T20:36:33.372Z,51.27
2019-02-22T20:39:01.318Z,44.07
2019-02-22T20:41:29.339Z,52.90
2019-02-22T20:43:57.272Z,41.20
2019-02-22T20:46:25.281Z,37.27
2019-02-22T20:49:00.560Z,29.00
2019-02-22T20:51:22.727Z,32.13
2019-02-22T20:53:50.735Z,27.97
2019-02-22T20:56:18.539Z,32.50
2019-02-22T20:58:46.435Z,24.13
2019-02-22T21:01:15.086Z,26.47
2019-02-22T21:03:43.082Z,25.10
2019-02-22T21:06:10.941Z,28.43
2019-02-22T21:08:38.867Z,24.80
2019-02-22T21:11:06.773Z,31.40
2019-02-22T21:13:34.683Z,33.30
2019-02-22T21:16:02.672Z,34.17
2019-02-22T21:18:30.490Z,31.30
2019-02-22T21:20:58.256Z,21.87
2019-02-22T21:23:26.267Z,21.27
2019-02-22T21:25:54.206Z,14.20
2019-02-22T21:28:22.070Z,18.50
2019-02-22T21:30:49.967Z,20.90
2019-02-22T21:33:17.768Z,10.13
2019-02-22T21:35:45.442Z,8.97
2019-02-22T21:38:13.436Z,11.03
2019-02-22T21:40:41.273Z,16.23
2019-02-22T21:43:09.023Z,16.97
2019-02-22T21:45:37.012Z,15.83
2019-02-22T21:48:04.869Z,16.90
2019-02-22T21:50:32.735Z,38.47
2019-02-22T21:53:00.669Z,8.20
2019-02-22T21:55:28.570Z,13.87
2019-02-22T21:57:56.452Z,8.17
2019-02-22T22:00:24.456Z,6.97
2019-02-22T22:02:52.354Z,6.87
2019-02-22T22:05:20.237Z,8.10
2019-02-22T22:07:48.179Z,9.53
2019-02-22T22:10:15.954Z,8.37
2019-02-22T22:12:43.883Z,7.80
2019-02-22T22:15:11.883Z,8.77
2019-02-22T22:17:39.775Z,8.63
2019-02-22T22:20:07.703Z,11.33
2019-02-22T22:22:35.863Z,8.50
2019-02-22T22:25:03.795Z,6.57
2019-02-22T22:27:31.648Z,18.30
2019-02-22T22:29:59.655Z,23.50
2019-02-22T22:32:27.481Z,7.03
2019-02-22T22:34:55.342Z,9.00
2019-02-22T22:37:23.273Z,8.00
2019-02-22T22:39:51.192Z,8.07
2019-02-22T22:42:19.040Z,9.50
2019-02-22T22:44:47.053Z,23.87
2019-02-22T22:47:14.862Z,5.53
2019-02-22T22:49:42.738Z,9.77
2019-02-22T22:52:10.849Z,10.93
2019-02-22T22:54:38.687Z,10.73
2019-02-22T22:57:06.563Z,11.53
2019-02-22T22:59:34.587Z,8.50
2019-02-22T23:02:02.768Z,32.37
2019-02-22T23:04:30.651Z,18.10
2019-02-22T23:06:58.594Z,14.27
2019-02-22T23:09:26.607Z,6.87
2019-02-22T23:11:54.468Z,6.33
2019-02-22T23:14:22.483Z,7.37
2019-02-22T23:16:50.313Z,8.27
2019-02-22T23:19:18.218Z,6.47
2019-02-22T23:21:46.314Z,13.50
2019-02-22T23:24:14.196Z,9.90
2019-02-22T23:26:42.055Z,11.20
2019-02-22T23:29:09.998Z,10.83
2019-02-22T23:31:37.909Z,11.00
2019-02-22T23:34:05.868Z,13.00
2019-02-22T23:36:33.800Z,25.03
2019-02-22T23:39:01.865Z,11.87
2019-02-22T23:41:29.767Z,12.37
2019-02-22T23:43:57.611Z,17.43
2019-02-22T23:46:25.502Z,5.97
2019-02-22T23:48:53.377Z,11.70
2019-02-22T23:51:21.290Z,10.67
2019-02-22T23:53:49.233Z,13.93
2019-02-22T23:56:17.073Z,13.97
2019-02-22T23:58:44.999Z,16.57
